• Join FlightAware (Why Join?)
  • Login
  • US Flag 
04:43AM EDT


 

Airport Tracker/Info


-or-


 

Live Flight TrackerFlight Track Log ✈ EJA941 ✈ 19-Jun-2013 ✈ MWCR / GCM - KIAD

Flight Track Log - Related Links

Times and Time Zones

All times are in EDT time to prevent confusion due to time zone crossing. See the EJA941 flight status page for this flight to view local times or setup timezone preferences in your user account.

Time Position Orientation Groundspeed Altitude Reporting Facility
EDT Latitude Longitude Course Direction KTS MPH feet Rate Location/Type
05:38PM 23.3855 -80.6585 North  Level Estimated
05:39PM 23.5133 -80.6360 North  Level Estimated
05:40PM 23.6412 -80.6134 North  Level Estimated
05:41PM 23.7690 -80.5908 North  Level Estimated
05:41PM 23.2511 -81.2586 North 512 589 40,000  Level Miami Center
05:42PM 23.8968 -80.5682 North  Level Estimated
05:42PM 23.3914 -81.2497 North 512 589 40,000  Level Miami Center
05:43PM 24.0247 -80.5455 North  Level Estimated
05:43PM 23.5272 -81.2453 North 497 572 40,000  Level Miami Center
05:44PM 24.1525 -80.5228 North  Level Estimated
05:44PM 23.6611 -81.2342 North 485 558 40,000  Level Miami Center
05:45PM 24.2803 -80.5000 North  Level Estimated
05:45PM 23.7972 -81.2253 North 485 558 40,000  Level Miami Center
05:46PM 24.4081 -80.4771 North  Level Estimated
05:46PM 23.9353 -81.2208 North 485 558 40,000  Level Miami Center
05:47PM 24.0717 -81.2006 North 485 558 40,000 300 Level Miami Center
05:48PM 24.2039 -81.1756 10° North 485 558 40,700 480 Climbing Miami Center
05:49PM 24.3383 -81.1506 10° North 480 552 41,000 60 Climbing Miami Center
05:51PM 24.6089 -81.1028 North 485 558 41,000  Level Miami Center
05:52PM 24.7433 -81.0775 10° North 485 558 41,000  Level Miami Center
05:53PM 24.8800 -81.0503 10° North 485 558 41,000 300 Level Miami Center
05:54PM 25.0164 -81.0297 North 485 558 41,600 600 Climbing Miami Center
05:55PM 25.1486 -81.0019 11° North 485 558 42,200 600 Climbing Miami Center
05:56PM 25.2831 -80.9792 North 485 558 42,900 360 Climbing Miami Center
05:57PM 25.4131 -80.9536 10° North 480 552 43,000  Climbing Miami Center
05:58PM 25.5400 -80.9025 20° North 480 552 43,000 360 Level Miami Center
05:59PM 25.6625 -80.8444 23° Northeast 475 547 43,800 720 Climbing Miami Center
06:00PM 25.7786 -80.8067 16° North 475 547 44,500 600 Climbing Miami Center
06:01PM 25.9069 -80.7694 15° North 475 547 45,000 240 Climbing Miami Center
06:02PM 26.0353 -80.7367 13° North 463 533 45,000  Level Miami Center
06:03PM 26.1692 -80.7247 North 470 541 45,000  Level Miami Center
06:04PM 26.3092 -80.7247 360° North 463 533 45,000  Level Miami Center
06:05PM 26.4278 -80.7425 352° North 463 533 45,000 240 Level Miami Center
06:06PM 26.5692 -80.7658 352° North 461 531 45,500 480 Climbing Miami Center
06:07PM 26.6936 -80.7908 350° North 461 531 46,000 240 Climbing Miami Center
06:08PM 26.8225 -80.8161 350° North 461 531 46,000  Level Miami Center
06:09PM 26.9492 -80.8436 349° North 466 536 46,000  Level Miami Center
06:10PM 27.0767 -80.8364 North 450 518 46,000  Level Miami Center
06:11PM 27.2031 -80.7964 16° North 456 525 46,000 -60 Level Miami Center
06:12PM 27.3292 -80.7608 14° North 461 531 45,900  Descending Miami Center
06:13PM 27.4575 -80.7256 14° North 466 536 46,000  Climbing Miami Center
06:14PM 27.5878 -80.6900 14° North 471 542 46,000  Level Miami Center
06:15PM 27.7036 -80.6564 14° North 471 542 46,000  Level Miami Center
06:16PM 27.8297 -80.6208 14° North 471 542 46,000  Level Miami Center
06:17PM 27.9789 -80.5833 13° North 477 549 46,000  Level Miami Center
06:18PM 28.1092 -80.5547 11° North 477 549 46,000  Level Miami Center
06:19PM 28.2392 -80.5283 10° North 471 542 46,000  Level Miami Center
06:20PM 28.3689 -80.5161 North 471 542 46,000  Level Miami Center
06:21PM 28.4939 -80.5247 357° North 471 542 46,000  Level Miami Center
06:23PM 28.7858 -80.5475 356° North 481 554 46,000  Level Jacksonville Center
06:24PM 28.9136 -80.5775 348° North 481 554 46,000  Level Jacksonville Center
06:25PM 29.0439 -80.6125 347° North 476 548 46,000  Level Jacksonville Center
06:26PM 29.1611 -80.6456 346° North 476 548 46,000  Level Jacksonville Center
06:27PM 29.2892 -80.6878 344° North 481 554 46,000  Level Jacksonville Center
06:28PM 29.4192 -80.7183 348° North 481 554 46,000  Level Jacksonville Center
06:29PM 29.5408 -80.7467 349° North 467 537 46,000  Level Jacksonville Center
06:30PM 29.6686 -80.7747 349° North 460 529 46,000  Level Jacksonville Center
06:31PM 29.7986 -80.8078 348° North 460 529 46,000  Level Jacksonville Center
06:32PM 29.9306 -80.8386 349° North 475 547 46,000  Level Jacksonville Center
06:33PM 30.0625 -80.8694 349° North 475 547 46,000  Level Jacksonville Center
06:34PM 30.1925 -80.9003 348° North 475 547 46,000  Level Jacksonville Center
06:35PM 30.3225 -80.9289 349° North 469 540 46,000  Level Jacksonville Center
06:36PM 30.4544 -80.9600 349° North 474 545 46,000  Level Jacksonville Center
06:37PM 30.5842 -80.9911 348° North 474 545 46,000  Level Jacksonville Center
06:38PM 30.7100 -81.0225 348° North 469 540 46,000  Level Jacksonville Center
06:39PM 30.8400 -81.0561 347° North 469 540 46,000  Level Jacksonville Center
06:40PM 30.9678 -81.0853 349° North 469 540 46,000  Level Jacksonville Center
06:41PM 31.0914 -81.1167 348° North 469 540 46,000  Level Jacksonville Center
06:42PM 31.2172 -81.1483 348° North 464 534 46,000  Level Jacksonville Center
06:43PM 31.3550 -81.1603 356° North 453 521 46,100 300 Climbing Jacksonville Center
06:44PM 31.4586 -81.1072 24° Northeast 441 507 46,700 420 Climbing Jacksonville Center
06:45PM 31.5914 -81.0389 24° Northeast 455 524 47,000 120 Climbing Jacksonville Center
06:46PM 31.7094 -80.9806 23° Northeast 460 529 47,000  Level Jacksonville Center
06:47PM 31.8339 -80.9167 24° Northeast 466 536 47,000  Level Jacksonville Center
06:48PM 31.9539 -80.8553 23° Northeast 474 545 47,000  Level Jacksonville Center
06:49PM 32.0656 -80.7967 24° Northeast 474 545 47,000  Level Jacksonville Center
06:50PM 32.1836 -80.7375 23° Northeast 469 540 47,000  Level Jacksonville Center
06:51PM 32.3078 -80.6756 23° Northeast 469 540 47,000  Level Jacksonville Center
06:52PM 32.4300 -80.6108 24° Northeast 475 547 47,000  Level Jacksonville Center
06:53PM 32.5539 -80.5486 23° Northeast 475 547 47,000  Level Jacksonville Center
06:54PM 32.6781 -80.4839 24° Northeast 475 547 47,000  Level Jacksonville Center
06:55PM 32.8000 -80.4189 24° Northeast 475 547 47,000  Level Jacksonville Center
06:56PM 32.9219 -80.3586 23° Northeast 475 547 47,000  Level Jacksonville Center
06:57PM 33.0539 -80.2853 25° Northeast 488 562 47,000  Level Jacksonville Center
06:58PM 33.1800 -80.2197 24° Northeast 494 568 47,000  Level Jacksonville Center
06:59PM 33.3225 -80.1458 23° Northeast 501 577 47,000  Level Jacksonville Center
07:00PM 33.4419 -80.0822 24° Northeast 484 557 47,000  Level Jacksonville Center
07:01PM 33.5678 -80.0161 24° Northeast 479 551 47,000  Level Jacksonville Center
07:02PM 33.6936 -79.9469 25° Northeast 479 551 47,000 -360 Level Jacksonville Center
07:03PM 33.8172 -79.8806 24° Northeast 479 551 46,300 -1,080 Descending Jacksonville Center
07:04PM 33.9469 -79.8108 24° Northeast 491 565 44,900 -1,020 Descending Jacksonville Center
07:06PM 34.2214 -79.6656 24° Northeast 492 566 43,000 -840 Descending Washington Center
07:07PM 34.3617 -79.5894 24° Northeast 517 595 42,300 -900 Descending Washington Center
07:08PM 34.4956 -79.5128 25° Northeast 523 602 41,200 -660 Descending Washington Center
07:09PM 34.6356 -79.4414 23° Northeast 528 608 41,000 -120 Descending Washington Center
07:10PM 34.7758 -79.3669 24° Northeast 528 608 41,000  Level Washington Center
07:11PM 34.9158 -79.2925 24° Northeast 533 613 41,000  Level Washington Center
07:12PM 35.0558 -79.2178 24° Northeast 533 613 41,000  Level Washington Center
07:13PM 35.1978 -79.1403 24° Northeast 538 619 41,000 -120 Level Washington Center
07:14PM 35.3336 -79.0675 24° Northeast 538 619 40,800 -900 Descending Washington Center
07:15PM 35.4797 -78.9894 24° Northeast 545 627 39,300 -1,620 Descending Washington Center
07:16PM 35.6408 -78.9044 23° Northeast 558 642 37,700 -1,560 Descending Washington Center
07:17PM 35.7869 -78.8233 24° Northeast 568 654 36,200 -900 Descending Washington Center
07:18PM 35.9331 -78.7422 24° Northeast 568 654 36,000 -360 Descending Washington Center
07:19PM 36.0792 -78.6581 25° Northeast 568 654 35,600 -1,560 Descending Washington Center
07:20PM 36.2294 -78.5739 24° Northeast 568 654 32,900 -2,880 Descending Washington Center
07:21PM 36.3714 -78.4939 24° Northeast 568 654 29,900 -2,880 Descending Washington Center
07:22PM 36.5086 -78.4192 24° Northeast 554 638 27,200 -1,860 Descending Washington Center
07:23PM 36.6356 -78.3433 26° Northeast 524 603 26,300 -1,320 Descending Washington Center
07:24PM 36.7583 -78.2725 25° Northeast 499 574 24,700 -1,620 Descending Washington Center
07:25PM 36.8786 -78.2067 24° Northeast 473 544 23,100 -1,380 Descending Washington Center
07:26PM 36.9950 -78.1378 25° Northeast 467 537 22,000 -600 Descending Washington Center
07:27PM 37.1108 -78.0739 24° Northeast 455 524 22,000  Level Washington Center
07:28PM 37.2272 -78.0047 25° Northeast 450 518 22,000  Level Washington Center
07:29PM 37.3453 -77.9353 25° Northeast 450 518 22,000  Level Washington Center
07:30PM 37.4614 -77.8681 25° Northeast 450 518 22,000 -600 Level Washington Center
07:31PM 37.5794 -77.8008 24° Northeast 450 518 20,900 -1,620 Descending Washington Center
07:32PM 37.6975 -77.7308 25° Northeast 450 518 18,800 -2,100 Descending Washington Center
07:33PM 37.8050 -77.6656 26° Northeast 450 518 16,800 -2,040 Descending Washington Center
07:34PM 37.9144 -77.6053 23° Northeast 438 504 14,800 -1,920 Descending Washington Center
07:35PM 38.0197 -77.5397 26° Northeast 425 489 13,000 -1,620 Descending Washington Center
07:36PM 38.1039 -77.4942 23° Northeast 401 461 11,600 -1,500 Descending Washington Center
07:37PM 38.1878 -77.4647 15° North 362 417 10,000 -1,020 Descending Washington Center
07:38PM 38.2672 -77.4589 North 310 357 9,600 -1,020 Descending Washington Center
07:39PM 38.3444 -77.4581 360° North 292 336 8,100 -1,560 Descending Washington Center
07:40PM 38.4172 -77.4547 North 270 311 6,500 -1,620 Descending Washington Center
07:41PM 38.4903 -77.4511 North 259 298 4,900 -1,260 Descending Washington Center
07:42PM 38.5656 -77.4478 North 259 298 4,000 -540 Descending Washington Center
07:43PM 38.6386 -77.4469 North 259 298 3,900 -480 Descending Washington Center
07:44PM 38.7011 -77.4431 North 245 282 3,100 -540 Descending Washington Center
07:45PM 38.7658 -77.4419 North 229 264 2,900 -540 Descending Washington Center
07:46PM 38.8333 -77.4333 North 192 221 2,100 -840 Descending Potomac TRACON
07:47PM 38.8833 -77.4333 360° North 147 169 1,300 -840 Descending Potomac TRACON
07:49PM 38.9474 -77.4599 11° North  Level Estimated
07:56PM 38.9474 -77.4599 195° South  Level Estimated
07:57PM 38.9474 -77.4599 195° South  Level Estimated
07:58PM 38.9474 -77.4599 195° South  Level Estimated
07:59PM 38.9474 -77.4599 195° South  Level Estimated